sensor_id;sensor_type;location;lat;lon;timestamp;P1;durP1;ratioP1;P2;durP2;ratioP2
74465;SDS011;62916;50.044;15.938;2023-10-13T00:00:42;2.50;;;2.00;;
74465;SDS011;62916;50.044;15.938;2023-10-13T00:03:15;3.80;;;2.50;;
74465;SDS011;62916;50.044;15.938;2023-10-13T00:05:46;2.60;;;2.30;;
74465;SDS011;62916;50.044;15.938;2023-10-13T00:08:20;2.80;;;2.30;;
74465;SDS011;62916;50.044;15.938;2023-10-13T00:10:52;2.80;;;2.30;;
74465;SDS011;62916;50.044;15.938;2023-10-13T00:13:29;3.40;;;2.40;;
74465;SDS011;62916;50.044;15.938;2023-10-13T00:16:09;2.70;;;2.50;;
74465;SDS011;62916;50.044;15.938;2023-10-13T00:18:45;2.90;;;2.60;;
74465;SDS011;62916;50.044;15.938;2023-10-13T00:21:18;3.20;;;2.30;;
74465;SDS011;62916;50.044;15.938;2023-10-13T00:24:00;2.90;;;2.30;;
74465;SDS011;62916;50.044;15.938;2023-10-13T00:26:34;3.00;;;2.50;;
74465;SDS011;62916;50.044;15.938;2023-10-13T00:29:05;3.40;;;2.20;;
74465;SDS011;62916;50.044;15.938;2023-10-13T00:31:44;3.10;;;2.20;;
74465;SDS011;62916;50.044;15.938;2023-10-13T00:34:17;3.60;;;2.10;;
74465;SDS011;62916;50.044;15.938;2023-10-13T00:36:53;3.00;;;2.60;;
74465;SDS011;62916;50.044;15.938;2023-10-13T00:39:38;3.20;;;2.50;;
74465;SDS011;62916;50.044;15.938;2023-10-13T00:44:48;3.00;;;2.20;;
74465;SDS011;62916;50.044;15.938;2023-10-13T00:47:22;2.60;;;2.30;;
74465;SDS011;62916;50.044;15.938;2023-10-13T00:50:07;3.50;;;2.20;;
74465;SDS011;62916;50.044;15.938;2023-10-13T00:52:42;2.50;;;2.20;;
74465;SDS011;62916;50.044;15.938;2023-10-13T00:55:19;3.00;;;2.50;;
74465;SDS011;62916;50.044;15.938;2023-10-13T00:57:52;3.30;;;2.40;;
74465;SDS011;62916;50.044;15.938;2023-10-13T01:00:25;2.80;;;2.20;;
74465;SDS011;62916;50.044;15.938;2023-10-13T01:02:56;3.50;;;2.50;;
74465;SDS011;62916;50.044;15.938;2023-10-13T01:05:34;3.00;;;2.20;;
74465;SDS011;62916;50.044;15.938;2023-10-13T01:08:07;2.80;;;2.50;;
74465;SDS011;62916;50.044;15.938;2023-10-13T01:10:39;2.30;;;2.00;;
74465;SDS011;62916;50.044;15.938;2023-10-13T01:13:10;3.00;;;2.70;;
74465;SDS011;62916;50.044;15.938;2023-10-13T01:15:42;3.00;;;2.20;;
74465;SDS011;62916;50.044;15.938;2023-10-13T01:18:14;2.20;;;2.00;;
74465;SDS011;62916;50.044;15.938;2023-10-13T01:20:45;3.20;;;2.60;;
74465;SDS011;62916;50.044;15.938;2023-10-13T01:23:20;2.90;;;2.60;;
74465;SDS011;62916;50.044;15.938;2023-10-13T01:25:56;3.00;;;2.10;;
74465;SDS011;62916;50.044;15.938;2023-10-13T01:28:32;2.60;;;2.20;;
74465;SDS011;62916;50.044;15.938;2023-10-13T01:31:12;3.30;;;2.30;;
74465;SDS011;62916;50.044;15.938;2023-10-13T01:36:26;2.10;;;1.90;;
74465;SDS011;62916;50.044;15.938;2023-10-13T01:39:04;3.20;;;2.20;;
74465;SDS011;62916;50.044;15.938;2023-10-13T01:41:34;3.10;;;2.40;;
74465;SDS011;62916;50.044;15.938;2023-10-13T01:44:07;2.40;;;2.00;;
74465;SDS011;62916;50.044;15.938;2023-10-13T01:46:39;2.70;;;2.10;;
74465;SDS011;62916;50.044;15.938;2023-10-13T01:49:11;2.60;;;2.40;;
74465;SDS011;62916;50.044;15.938;2023-10-13T01:51:44;2.70;;;2.10;;
74465;SDS011;62916;50.044;15.938;2023-10-13T01:54:16;2.80;;;2.60;;
74465;SDS011;62916;50.044;15.938;2023-10-13T01:56:49;2.40;;;2.20;;
74465;SDS011;62916;50.044;15.938;2023-10-13T01:59:19;3.10;;;2.70;;
74465;SDS011;62916;50.044;15.938;2023-10-13T02:01:51;3.30;;;3.00;;
74465;SDS011;62916;50.044;15.938;2023-10-13T02:04:24;2.70;;;2.50;;
74465;SDS011;62916;50.044;15.938;2023-10-13T02:06:56;3.30;;;2.10;;
74465;SDS011;62916;50.044;15.938;2023-10-13T02:09:26;2.20;;;2.00;;
74465;SDS011;62916;50.044;15.938;2023-10-13T02:11:58;3.20;;;2.40;;
74465;SDS011;62916;50.044;15.938;2023-10-13T02:14:29;2.80;;;2.20;;
74465;SDS011;62916;50.044;15.938;2023-10-13T02:17:01;2.90;;;2.40;;
74465;SDS011;62916;50.044;15.938;2023-10-13T02:19:41;2.80;;;2.20;;
74465;SDS011;62916;50.044;15.938;2023-10-13T02:22:13;2.60;;;2.10;;
74465;SDS011;62916;50.044;15.938;2023-10-13T02:24:54;3.10;;;2.80;;
74465;SDS011;62916;50.044;15.938;2023-10-13T02:27:34;3.80;;;2.10;;
74465;SDS011;62916;50.044;15.938;2023-10-13T02:30:09;2.60;;;1.90;;
74465;SDS011;62916;50.044;15.938;2023-10-13T02:35:12;2.40;;;1.90;;
74465;SDS011;62916;50.044;15.938;2023-10-13T02:37:45;3.20;;;2.00;;
74465;SDS011;62916;50.044;15.938;2023-10-13T02:40:22;2.40;;;1.90;;
74465;SDS011;62916;50.044;15.938;2023-10-13T02:42:53;2.70;;;2.10;;
74465;SDS011;62916;50.044;15.938;2023-10-13T02:45:25;2.60;;;1.90;;
74465;SDS011;62916;50.044;15.938;2023-10-13T02:47:55;2.80;;;2.30;;
74465;SDS011;62916;50.044;15.938;2023-10-13T02:50:40;3.00;;;2.00;;
74465;SDS011;62916;50.044;15.938;2023-10-13T02:53:14;3.70;;;2.50;;
74465;SDS011;62916;50.044;15.938;2023-10-13T02:55:53;2.70;;;2.30;;
74465;SDS011;62916;50.044;15.938;2023-10-13T02:58:26;3.00;;;2.50;;
74465;SDS011;62916;50.044;15.938;2023-10-13T03:03:47;2.80;;;2.00;;
74465;SDS011;62916;50.044;15.938;2023-10-13T03:06:23;2.30;;;2.10;;
74465;SDS011;62916;50.044;15.938;2023-10-13T03:09:00;2.70;;;1.90;;
74465;SDS011;62916;50.044;15.938;2023-10-13T03:11:43;2.40;;;2.10;;
74465;SDS011;62916;50.044;15.938;2023-10-13T03:14:17;2.20;;;2.00;;
74465;SDS011;62916;50.044;15.938;2023-10-13T03:16:55;3.00;;;2.10;;
74465;SDS011;62916;50.044;15.938;2023-10-13T03:19:31;3.00;;;2.50;;
74465;SDS011;62916;50.044;15.938;2023-10-13T03:22:03;3.20;;;2.20;;
74465;SDS011;62916;50.044;15.938;2023-10-13T03:24:38;2.40;;;2.00;;
74465;SDS011;62916;50.044;15.938;2023-10-13T03:27:14;2.90;;;2.70;;
74465;SDS011;62916;50.044;15.938;2023-10-13T03:29:51;2.60;;;2.40;;
74465;SDS011;62916;50.044;15.938;2023-10-13T03:32:23;2.80;;;2.30;;
74465;SDS011;62916;50.044;15.938;2023-10-13T03:34:55;2.60;;;2.10;;
74465;SDS011;62916;50.044;15.938;2023-10-13T03:37:39;2.30;;;2.10;;
74465;SDS011;62916;50.044;15.938;2023-10-13T03:40:11;2.70;;;2.40;;
74465;SDS011;62916;50.044;15.938;2023-10-13T03:42:56;2.00;;;1.70;;
74465;SDS011;62916;50.044;15.938;2023-10-13T03:45:33;2.80;;;2.10;;
74465;SDS011;62916;50.044;15.938;2023-10-13T03:48:08;2.20;;;1.70;;
74465;SDS011;62916;50.044;15.938;2023-10-13T03:50:44;2.20;;;2.00;;
74465;SDS011;62916;50.044;15.938;2023-10-13T03:53:16;3.70;;;2.30;;
74465;SDS011;62916;50.044;15.938;2023-10-13T03:55:47;2.00;;;1.80;;
74465;SDS011;62916;50.044;15.938;2023-10-13T03:58:36;2.70;;;2.10;;
74465;SDS011;62916;50.044;15.938;2023-10-13T04:01:10;3.70;;;2.00;;
74465;SDS011;62916;50.044;15.938;2023-10-13T04:03:43;3.20;;;2.50;;
74465;SDS011;62916;50.044;15.938;2023-10-13T04:06:31;3.30;;;2.00;;
74465;SDS011;62916;50.044;15.938;2023-10-13T04:09:40;2.20;;;1.90;;
74465;SDS011;62916;50.044;15.938;2023-10-13T04:12:28;3.00;;;2.10;;
74465;SDS011;62916;50.044;15.938;2023-10-13T04:15:22;2.50;;;2.10;;
74465;SDS011;62916;50.044;15.938;2023-10-13T04:18:04;2.40;;;1.90;;
74465;SDS011;62916;50.044;15.938;2023-10-13T04:20:58;3.10;;;2.30;;
74465;SDS011;62916;50.044;15.938;2023-10-13T04:23:47;16.00;;;4.30;;
74465;SDS011;62916;50.044;15.938;2023-10-13T04:26:35;11.30;;;4.40;;
74465;SDS011;62916;50.044;15.938;2023-10-13T04:29:26;18.40;;;5.40;;
74465;SDS011;62916;50.044;15.938;2023-10-13T04:32:13;16.80;;;5.60;;
74465;SDS011;62916;50.044;15.938;2023-10-13T04:34:56;14.30;;;4.90;;
74465;SDS011;62916;50.044;15.938;2023-10-13T04:37:36;14.10;;;5.30;;
74465;SDS011;62916;50.044;15.938;2023-10-13T04:40:24;13.70;;;4.60;;
74465;SDS011;62916;50.044;15.938;2023-10-13T04:43:03;13.50;;;4.80;;
74465;SDS011;62916;50.044;15.938;2023-10-13T04:45:54;13.60;;;4.80;;
74465;SDS011;62916;50.044;15.938;2023-10-13T04:48:42;10.40;;;4.70;;
74465;SDS011;62916;50.044;15.938;2023-10-13T04:51:15;11.20;;;3.90;;
74465;SDS011;62916;50.044;15.938;2023-10-13T04:54:12;9.90;;;4.20;;
74465;SDS011;62916;50.044;15.938;2023-10-13T04:56:54;8.60;;;3.90;;
74465;SDS011;62916;50.044;15.938;2023-10-13T04:59:45;8.30;;;3.70;;
74465;SDS011;62916;50.044;15.938;2023-10-13T05:02:33;11.20;;;4.30;;
74465;SDS011;62916;50.044;15.938;2023-10-13T05:05:22;9.30;;;4.30;;
74465;SDS011;62916;50.044;15.938;2023-10-13T05:08:13;11.50;;;3.80;;
74465;SDS011;62916;50.044;15.938;2023-10-13T05:11:04;9.50;;;4.00;;
74465;SDS011;62916;50.044;15.938;2023-10-13T05:13:58;8.80;;;4.10;;
74465;SDS011;62916;50.044;15.938;2023-10-13T05:16:47;8.20;;;4.10;;
74465;SDS011;62916;50.044;15.938;2023-10-13T05:19:36;6.70;;;4.00;;
74465;SDS011;62916;50.044;15.938;2023-10-13T05:22:33;6.20;;;3.40;;
74465;SDS011;62916;50.044;15.938;2023-10-13T05:25:21;6.60;;;3.30;;
74465;SDS011;62916;50.044;15.938;2023-10-13T05:28:10;7.30;;;3.50;;
74465;SDS011;62916;50.044;15.938;2023-10-13T05:31:03;8.70;;;3.40;;
74465;SDS011;62916;50.044;15.938;2023-10-13T05:33:52;5.70;;;3.40;;
74465;SDS011;62916;50.044;15.938;2023-10-13T05:36:41;6.50;;;3.40;;
74465;SDS011;62916;50.044;15.938;2023-10-13T05:39:30;7.70;;;4.40;;
74465;SDS011;62916;50.044;15.938;2023-10-13T05:42:19;6.80;;;3.60;;
74465;SDS011;62916;50.044;15.938;2023-10-13T05:45:08;5.50;;;3.40;;
74465;SDS011;62916;50.044;15.938;2023-10-13T05:48:05;6.60;;;2.90;;
74465;SDS011;62916;50.044;15.938;2023-10-13T05:50:52;5.60;;;2.90;;
74465;SDS011;62916;50.044;15.938;2023-10-13T05:53:42;4.70;;;3.30;;
74465;SDS011;62916;50.044;15.938;2023-10-13T05:56:45;5.60;;;3.00;;
74465;SDS011;62916;50.044;15.938;2023-10-13T05:59:35;4.20;;;3.10;;
74465;SDS011;62916;50.044;15.938;2023-10-13T06:02:24;5.40;;;2.80;;
74465;SDS011;62916;50.044;15.938;2023-10-13T06:05:13;6.50;;;3.30;;
74465;SDS011;62916;50.044;15.938;2023-10-13T06:08:02;5.30;;;3.20;;
74465;SDS011;62916;50.044;15.938;2023-10-13T06:11:00;5.10;;;3.60;;
74465;SDS011;62916;50.044;15.938;2023-10-13T06:13:49;6.80;;;3.70;;
74465;SDS011;62916;50.044;15.938;2023-10-13T06:16:37;6.10;;;3.70;;
74465;SDS011;62916;50.044;15.938;2023-10-13T06:19:26;5.60;;;3.40;;
74465;SDS011;62916;50.044;15.938;2023-10-13T06:22:15;5.90;;;3.00;;
74465;SDS011;62916;50.044;15.938;2023-10-13T06:25:03;4.90;;;3.00;;
74465;SDS011;62916;50.044;15.938;2023-10-13T06:27:53;4.20;;;2.80;;
74465;SDS011;62916;50.044;15.938;2023-10-13T06:30:41;4.90;;;2.90;;
74465;SDS011;62916;50.044;15.938;2023-10-13T06:33:24;4.90;;;3.10;;
74465;SDS011;62916;50.044;15.938;2023-10-13T06:35:58;5.20;;;3.10;;
74465;SDS011;62916;50.044;15.938;2023-10-13T06:38:29;5.70;;;3.50;;
74465;SDS011;62916;50.044;15.938;2023-10-13T06:41:04;6.00;;;3.30;;
74465;SDS011;62916;50.044;15.938;2023-10-13T06:43:35;4.80;;;3.10;;
74465;SDS011;62916;50.044;15.938;2023-10-13T06:46:08;4.80;;;3.20;;
74465;SDS011;62916;50.044;15.938;2023-10-13T06:48:43;5.80;;;3.20;;
74465;SDS011;62916;50.044;15.938;2023-10-13T06:51:14;5.60;;;2.90;;
74465;SDS011;62916;50.044;15.938;2023-10-13T06:53:49;4.10;;;3.30;;
74465;SDS011;62916;50.044;15.938;2023-10-13T06:56:24;5.60;;;3.30;;
74465;SDS011;62916;50.044;15.938;2023-10-13T06:58:57;3.40;;;3.00;;
74465;SDS011;62916;50.044;15.938;2023-10-13T07:01:32;5.50;;;2.90;;
74465;SDS011;62916;50.044;15.938;2023-10-13T07:04:08;5.00;;;3.00;;
74465;SDS011;62916;50.044;15.938;2023-10-13T07:09:16;5.30;;;3.10;;
74465;SDS011;62916;50.044;15.938;2023-10-13T07:12:23;5.40;;;3.20;;
74465;SDS011;62916;50.044;15.938;2023-10-13T07:14:55;5.10;;;3.30;;
74465;SDS011;62916;50.044;15.938;2023-10-13T07:17:39;3.90;;;2.80;;
74465;SDS011;62916;50.044;15.938;2023-10-13T07:20:13;5.80;;;3.20;;
74465;SDS011;62916;50.044;15.938;2023-10-13T07:22:51;5.50;;;3.20;;
74465;SDS011;62916;50.044;15.938;2023-10-13T07:25:31;5.50;;;3.50;;
74465;SDS011;62916;50.044;15.938;2023-10-13T07:28:05;3.70;;;3.00;;
74465;SDS011;62916;50.044;15.938;2023-10-13T07:30:38;4.20;;;3.10;;
74465;SDS011;62916;50.044;15.938;2023-10-13T07:35:48;5.20;;;2.90;;
74465;SDS011;62916;50.044;15.938;2023-10-13T07:38:39;4.10;;;3.00;;
74465;SDS011;62916;50.044;15.938;2023-10-13T07:41:11;4.70;;;2.90;;
74465;SDS011;62916;50.044;15.938;2023-10-13T07:43:43;4.70;;;2.60;;
74465;SDS011;62916;50.044;15.938;2023-10-13T07:46:18;5.20;;;3.00;;
74465;SDS011;62916;50.044;15.938;2023-10-13T07:48:58;4.90;;;3.00;;
74465;SDS011;62916;50.044;15.938;2023-10-13T07:51:37;3.20;;;2.90;;
74465;SDS011;62916;50.044;15.938;2023-10-13T07:54:12;4.70;;;3.20;;
74465;SDS011;62916;50.044;15.938;2023-10-13T07:56:50;4.60;;;3.10;;
74465;SDS011;62916;50.044;15.938;2023-10-13T07:59:22;5.50;;;3.10;;
74465;SDS011;62916;50.044;15.938;2023-10-13T08:01:53;4.40;;;2.80;;
74465;SDS011;62916;50.044;15.938;2023-10-13T08:04:38;4.40;;;3.10;;
74465;SDS011;62916;50.044;15.938;2023-10-13T08:07:09;4.20;;;2.60;;
74465;SDS011;62916;50.044;15.938;2023-10-13T08:09:43;5.00;;;3.00;;
74465;SDS011;62916;50.044;15.938;2023-10-13T08:12:19;5.00;;;2.90;;
74465;SDS011;62916;50.044;15.938;2023-10-13T08:14:50;5.30;;;3.30;;
74465;SDS011;62916;50.044;15.938;2023-10-13T08:17:39;5.80;;;2.80;;
74465;SDS011;62916;50.044;15.938;2023-10-13T08:20:12;4.20;;;2.80;;
74465;SDS011;62916;50.044;15.938;2023-10-13T08:22:45;3.80;;;2.80;;
74465;SDS011;62916;50.044;15.938;2023-10-13T08:25:17;4.30;;;3.10;;
74465;SDS011;62916;50.044;15.938;2023-10-13T08:28:11;4.10;;;3.00;;
74465;SDS011;62916;50.044;15.938;2023-10-13T08:31:22;5.30;;;3.30;;
74465;SDS011;62916;50.044;15.938;2023-10-13T08:33:54;3.60;;;3.00;;
74465;SDS011;62916;50.044;15.938;2023-10-13T08:36:34;3.80;;;3.20;;
74465;SDS011;62916;50.044;15.938;2023-10-13T08:39:06;4.80;;;3.20;;
74465;SDS011;62916;50.044;15.938;2023-10-13T08:42:05;4.90;;;3.00;;
74465;SDS011;62916;50.044;15.938;2023-10-13T08:44:43;3.90;;;2.90;;
74465;SDS011;62916;50.044;15.938;2023-10-13T08:47:20;6.40;;;3.00;;
74465;SDS011;62916;50.044;15.938;2023-10-13T08:49:57;4.70;;;3.10;;
74465;SDS011;62916;50.044;15.938;2023-10-13T08:52:39;4.60;;;2.90;;
74465;SDS011;62916;50.044;15.938;2023-10-13T08:55:17;4.80;;;3.20;;
74465;SDS011;62916;50.044;15.938;2023-10-13T08:58:28;4.30;;;3.20;;
74465;SDS011;62916;50.044;15.938;2023-10-13T09:01:13;4.60;;;3.50;;
74465;SDS011;62916;50.044;15.938;2023-10-13T09:04:03;4.40;;;3.10;;
74465;SDS011;62916;50.044;15.938;2023-10-13T09:06:51;3.70;;;2.80;;
74465;SDS011;62916;50.044;15.938;2023-10-13T09:09:45;5.40;;;3.10;;
74465;SDS011;62916;50.044;15.938;2023-10-13T09:12:39;4.30;;;3.00;;
74465;SDS011;62916;50.044;15.938;2023-10-13T09:15:31;5.20;;;2.90;;
74465;SDS011;62916;50.044;15.938;2023-10-13T09:18:25;3.60;;;2.90;;
74465;SDS011;62916;50.044;15.938;2023-10-13T09:21:15;3.50;;;3.00;;
74465;SDS011;62916;50.044;15.938;2023-10-13T09:24:11;3.80;;;2.50;;
74465;SDS011;62916;50.044;15.938;2023-10-13T09:26:51;4.10;;;2.90;;
74465;SDS011;62916;50.044;15.938;2023-10-13T09:29:24;5.60;;;3.30;;
74465;SDS011;62916;50.044;15.938;2023-10-13T09:32:01;3.20;;;2.80;;
74465;SDS011;62916;50.044;15.938;2023-10-13T09:34:39;3.50;;;3.00;;
74465;SDS011;62916;50.044;15.938;2023-10-13T09:37:12;3.40;;;2.60;;
74465;SDS011;62916;50.044;15.938;2023-10-13T09:39:49;4.50;;;2.70;;
74465;SDS011;62916;50.044;15.938;2023-10-13T09:42:22;5.20;;;3.30;;
74465;SDS011;62916;50.044;15.938;2023-10-13T09:44:54;4.40;;;2.90;;
74465;SDS011;62916;50.044;15.938;2023-10-13T09:47:32;4.30;;;3.10;;
74465;SDS011;62916;50.044;15.938;2023-10-13T09:50:08;4.20;;;2.70;;
74465;SDS011;62916;50.044;15.938;2023-10-13T09:52:52;3.60;;;2.70;;
74465;SDS011;62916;50.044;15.938;2023-10-13T09:55:28;4.90;;;2.70;;
74465;SDS011;62916;50.044;15.938;2023-10-13T09:58:03;4.10;;;2.60;;
74465;SDS011;62916;50.044;15.938;2023-10-13T10:00:41;4.20;;;2.80;;
74465;SDS011;62916;50.044;15.938;2023-10-13T10:03:24;3.20;;;2.90;;
74465;SDS011;62916;50.044;15.938;2023-10-13T10:06:08;3.20;;;2.50;;
74465;SDS011;62916;50.044;15.938;2023-10-13T10:08:45;3.80;;;2.60;;
74465;SDS011;62916;50.044;15.938;2023-10-13T10:11:30;3.70;;;2.80;;
74465;SDS011;62916;50.044;15.938;2023-10-13T10:14:28;4.30;;;2.70;;
74465;SDS011;62916;50.044;15.938;2023-10-13T10:17:10;3.50;;;2.40;;
74465;SDS011;62916;50.044;15.938;2023-10-13T10:19:49;2.90;;;2.70;;
74465;SDS011;62916;50.044;15.938;2023-10-13T10:22:26;4.20;;;2.70;;
74465;SDS011;62916;50.044;15.938;2023-10-13T10:25:02;5.50;;;3.00;;
74465;SDS011;62916;50.044;15.938;2023-10-13T10:27:55;3.00;;;2.50;;
74465;SDS011;62916;50.044;15.938;2023-10-13T10:30:27;3.30;;;2.70;;
74465;SDS011;62916;50.044;15.938;2023-10-13T10:33:01;4.00;;;3.10;;
74465;SDS011;62916;50.044;15.938;2023-10-13T10:35:41;3.50;;;2.90;;
74465;SDS011;62916;50.044;15.938;2023-10-13T10:38:13;3.50;;;2.70;;
74465;SDS011;62916;50.044;15.938;2023-10-13T10:40:55;3.60;;;2.80;;
74465;SDS011;62916;50.044;15.938;2023-10-13T10:43:35;3.70;;;2.70;;
74465;SDS011;62916;50.044;15.938;2023-10-13T10:46:14;3.80;;;2.70;;
74465;SDS011;62916;50.044;15.938;2023-10-13T10:48:47;3.70;;;2.70;;
74465;SDS011;62916;50.044;15.938;2023-10-13T10:51:24;3.40;;;2.60;;
74465;SDS011;62916;50.044;15.938;2023-10-13T10:54:00;2.70;;;2.40;;
74465;SDS011;62916;50.044;15.938;2023-10-13T10:56:39;3.60;;;2.30;;
74465;SDS011;62916;50.044;15.938;2023-10-13T10:59:10;3.60;;;2.60;;
74465;SDS011;62916;50.044;15.938;2023-10-13T11:01:46;3.40;;;2.30;;
74465;SDS011;62916;50.044;15.938;2023-10-13T11:04:19;3.60;;;2.40;;
74465;SDS011;62916;50.044;15.938;2023-10-13T11:07:02;4.40;;;2.90;;
74465;SDS011;62916;50.044;15.938;2023-10-13T11:09:35;2.60;;;2.20;;
74465;SDS011;62916;50.044;15.938;2023-10-13T11:12:14;4.80;;;2.80;;
74465;SDS011;62916;50.044;15.938;2023-10-13T11:15:01;3.70;;;2.40;;
74465;SDS011;62916;50.044;15.938;2023-10-13T11:17:40;2.90;;;2.20;;
74465;SDS011;62916;50.044;15.938;2023-10-13T11:20:19;2.30;;;1.90;;
74465;SDS011;62916;50.044;15.938;2023-10-13T11:23:00;2.60;;;2.10;;
74465;SDS011;62916;50.044;15.938;2023-10-13T11:25:39;3.70;;;2.30;;
74465;SDS011;62916;50.044;15.938;2023-10-13T11:28:12;3.50;;;2.30;;
74465;SDS011;62916;50.044;15.938;2023-10-13T11:30:47;3.10;;;2.20;;
74465;SDS011;62916;50.044;15.938;2023-10-13T11:33:19;2.80;;;2.20;;
74465;SDS011;62916;50.044;15.938;2023-10-13T11:35:52;4.70;;;2.00;;
74465;SDS011;62916;50.044;15.938;2023-10-13T11:38:26;3.60;;;2.60;;
74465;SDS011;62916;50.044;15.938;2023-10-13T11:41:09;4.40;;;2.60;;
74465;SDS011;62916;50.044;15.938;2023-10-13T11:43:47;3.00;;;1.90;;
74465;SDS011;62916;50.044;15.938;2023-10-13T11:46:36;4.00;;;2.60;;
74465;SDS011;62916;50.044;15.938;2023-10-13T11:49:25;3.10;;;2.40;;
74465;SDS011;62916;50.044;15.938;2023-10-13T11:52:05;3.40;;;2.30;;
74465;SDS011;62916;50.044;15.938;2023-10-13T11:54:45;5.60;;;2.50;;
74465;SDS011;62916;50.044;15.938;2023-10-13T11:57:16;2.50;;;2.30;;
74465;SDS011;62916;50.044;15.938;2023-10-13T11:59:49;3.30;;;2.50;;
74465;SDS011;62916;50.044;15.938;2023-10-13T12:02:24;4.10;;;2.80;;
74465;SDS011;62916;50.044;15.938;2023-10-13T12:05:12;3.70;;;2.10;;
74465;SDS011;62916;50.044;15.938;2023-10-13T12:07:45;2.80;;;2.40;;
74465;SDS011;62916;50.044;15.938;2023-10-13T12:10:19;3.80;;;2.50;;
74465;SDS011;62916;50.044;15.938;2023-10-13T12:13:04;3.70;;;2.00;;
74465;SDS011;62916;50.044;15.938;2023-10-13T12:15:38;4.20;;;2.30;;
74465;SDS011;62916;50.044;15.938;2023-10-13T12:18:19;3.70;;;2.60;;
74465;SDS011;62916;50.044;15.938;2023-10-13T12:20:51;2.80;;;2.20;;
74465;SDS011;62916;50.044;15.938;2023-10-13T12:23:25;3.90;;;2.00;;
74465;SDS011;62916;50.044;15.938;2023-10-13T12:25:59;3.60;;;2.60;;
74465;SDS011;62916;50.044;15.938;2023-10-13T12:28:47;3.50;;;2.50;;
74465;SDS011;62916;50.044;15.938;2023-10-13T12:31:21;3.80;;;2.30;;
74465;SDS011;62916;50.044;15.938;2023-10-13T12:33:55;3.70;;;2.20;;
74465;SDS011;62916;50.044;15.938;2023-10-13T12:36:34;3.60;;;2.60;;
74465;SDS011;62916;50.044;15.938;2023-10-13T12:39:21;4.30;;;3.00;;
74465;SDS011;62916;50.044;15.938;2023-10-13T12:42:09;4.80;;;2.80;;
74465;SDS011;62916;50.044;15.938;2023-10-13T12:44:58;5.30;;;2.70;;
74465;SDS011;62916;50.044;15.938;2023-10-13T12:47:46;4.50;;;3.00;;
74465;SDS011;62916;50.044;15.938;2023-10-13T12:50:35;3.30;;;2.50;;
74465;SDS011;62916;50.044;15.938;2023-10-13T12:53:13;3.50;;;2.50;;
74465;SDS011;62916;50.044;15.938;2023-10-13T12:55:44;3.90;;;2.60;;
74465;SDS011;62916;50.044;15.938;2023-10-13T12:58:15;3.20;;;2.30;;
74465;SDS011;62916;50.044;15.938;2023-10-13T13:00:46;7.50;;;3.00;;
74465;SDS011;62916;50.044;15.938;2023-10-13T13:03:17;3.90;;;2.90;;
74465;SDS011;62916;50.044;15.938;2023-10-13T13:05:49;4.20;;;2.60;;
74465;SDS011;62916;50.044;15.938;2023-10-13T13:08:23;5.30;;;3.10;;
74465;SDS011;62916;50.044;15.938;2023-10-13T13:10:54;4.00;;;2.80;;
74465;SDS011;62916;50.044;15.938;2023-10-13T13:13:25;4.90;;;2.80;;
74465;SDS011;62916;50.044;15.938;2023-10-13T13:15:57;4.70;;;3.40;;
74465;SDS011;62916;50.044;15.938;2023-10-13T13:18:28;6.40;;;2.60;;
74465;SDS011;62916;50.044;15.938;2023-10-13T13:20:59;6.50;;;2.30;;
74465;SDS011;62916;50.044;15.938;2023-10-13T13:23:34;4.30;;;3.00;;
74465;SDS011;62916;50.044;15.938;2023-10-13T13:26:05;4.60;;;3.10;;
74465;SDS011;62916;50.044;15.938;2023-10-13T13:28:43;5.60;;;3.30;;
74465;SDS011;62916;50.044;15.938;2023-10-13T13:31:18;5.10;;;3.20;;
74465;SDS011;62916;50.044;15.938;2023-10-13T13:33:53;4.90;;;2.80;;
74465;SDS011;62916;50.044;15.938;2023-10-13T13:36:24;5.10;;;3.10;;
74465;SDS011;62916;50.044;15.938;2023-10-13T13:38:55;5.80;;;3.50;;
74465;SDS011;62916;50.044;15.938;2023-10-13T13:41:28;4.10;;;2.60;;
74465;SDS011;62916;50.044;15.938;2023-10-13T13:44:01;6.30;;;3.80;;
74465;SDS011;62916;50.044;15.938;2023-10-13T13:46:41;3.70;;;2.40;;
74465;SDS011;62916;50.044;15.938;2023-10-13T13:49:12;5.50;;;3.10;;
74465;SDS011;62916;50.044;15.938;2023-10-13T13:51:47;5.50;;;3.60;;
74465;SDS011;62916;50.044;15.938;2023-10-13T13:54:20;8.00;;;3.20;;
74465;SDS011;62916;50.044;15.938;2023-10-13T13:56:55;7.80;;;3.60;;
74465;SDS011;62916;50.044;15.938;2023-10-13T13:59:26;16.50;;;4.20;;
74465;SDS011;62916;50.044;15.938;2023-10-13T14:02:02;21.00;;;4.10;;
74465;SDS011;62916;50.044;15.938;2023-10-13T14:04:47;24.20;;;4.00;;
74465;SDS011;62916;50.044;15.938;2023-10-13T14:07:20;18.40;;;4.40;;
74465;SDS011;62916;50.044;15.938;2023-10-13T14:09:52;23.10;;;4.50;;
74465;SDS011;62916;50.044;15.938;2023-10-13T14:12:33;17.90;;;3.90;;
74465;SDS011;62916;50.044;15.938;2023-10-13T14:15:10;16.20;;;4.60;;
74465;SDS011;62916;50.044;15.938;2023-10-13T14:17:52;19.80;;;4.20;;
74465;SDS011;62916;50.044;15.938;2023-10-13T14:20:22;16.20;;;3.90;;
74465;SDS011;62916;50.044;15.938;2023-10-13T14:22:54;12.80;;;3.70;;
74465;SDS011;62916;50.044;15.938;2023-10-13T14:25:25;12.90;;;3.30;;
74465;SDS011;62916;50.044;15.938;2023-10-13T14:28:05;22.50;;;4.20;;
74465;SDS011;62916;50.044;15.938;2023-10-13T14:30:39;20.10;;;5.20;;
74465;SDS011;62916;50.044;15.938;2023-10-13T14:33:10;15.60;;;4.10;;
74465;SDS011;62916;50.044;15.938;2023-10-13T14:35:41;16.50;;;3.70;;
74465;SDS011;62916;50.044;15.938;2023-10-13T14:38:15;18.20;;;4.00;;
74465;SDS011;62916;50.044;15.938;2023-10-13T14:40:45;14.10;;;3.70;;
74465;SDS011;62916;50.044;15.938;2023-10-13T14:43:16;16.70;;;3.50;;
74465;SDS011;62916;50.044;15.938;2023-10-13T14:45:52;11.70;;;3.60;;
74465;SDS011;62916;50.044;15.938;2023-10-13T14:48:23;13.40;;;3.40;;
74465;SDS011;62916;50.044;15.938;2023-10-13T14:50:55;13.20;;;3.90;;
74465;SDS011;62916;50.044;15.938;2023-10-13T14:53:28;15.50;;;3.40;;
74465;SDS011;62916;50.044;15.938;2023-10-13T14:56:01;9.50;;;3.20;;
74465;SDS011;62916;50.044;15.938;2023-10-13T14:58:33;12.00;;;3.40;;
74465;SDS011;62916;50.044;15.938;2023-10-13T15:01:09;11.80;;;3.80;;
74465;SDS011;62916;50.044;15.938;2023-10-13T15:03:43;11.30;;;3.90;;
74465;SDS011;62916;50.044;15.938;2023-10-13T15:06:18;8.10;;;3.10;;
74465;SDS011;62916;50.044;15.938;2023-10-13T15:08:52;10.00;;;3.90;;
74465;SDS011;62916;50.044;15.938;2023-10-13T15:11:24;9.90;;;3.50;;
74465;SDS011;62916;50.044;15.938;2023-10-13T15:14:15;9.50;;;4.20;;
74465;SDS011;62916;50.044;15.938;2023-10-13T15:16:48;13.60;;;4.20;;
74465;SDS011;62916;50.044;15.938;2023-10-13T15:19:20;11.70;;;3.90;;
74465;SDS011;62916;50.044;15.938;2023-10-13T15:21:51;8.80;;;3.60;;
74465;SDS011;62916;50.044;15.938;2023-10-13T15:24:23;8.20;;;3.70;;
74465;SDS011;62916;50.044;15.938;2023-10-13T15:26:58;7.40;;;3.70;;
74465;SDS011;62916;50.044;15.938;2023-10-13T15:29:33;6.50;;;3.70;;
74465;SDS011;62916;50.044;15.938;2023-10-13T15:32:05;9.00;;;3.90;;
74465;SDS011;62916;50.044;15.938;2023-10-13T15:34:55;10.70;;;4.30;;
74465;SDS011;62916;50.044;15.938;2023-10-13T15:37:26;9.50;;;3.70;;
74465;SDS011;62916;50.044;15.938;2023-10-13T15:39:57;8.10;;;3.50;;
74465;SDS011;62916;50.044;15.938;2023-10-13T15:42:31;8.40;;;3.50;;
74465;SDS011;62916;50.044;15.938;2023-10-13T15:45:07;4.60;;;3.10;;
74465;SDS011;62916;50.044;15.938;2023-10-13T15:47:46;5.10;;;3.20;;
74465;SDS011;62916;50.044;15.938;2023-10-13T15:50:20;7.30;;;3.70;;
74465;SDS011;62916;50.044;15.938;2023-10-13T15:52:51;10.50;;;4.10;;
74465;SDS011;62916;50.044;15.938;2023-10-13T15:55:22;9.20;;;4.00;;